UBBB/BAK METAR and TAF weather

Enter ICAO airport designator
Station Type Date Time Source
UBBB METAR 2020/09/18 23:30 UTC NOAA

UBBB 182330Z 17006KT CAVOK 22/19 Q1009 R88/CLRD// NOSIG


Station Type Date Time Source
UBBB Decoded METAR 2020/09/18 23:30 UTC NOAA

Baku / Bine Airport, Azerbaijan (UBBB) 40-27N 050-04E -1M
Sep 18, 2020 - 07:30 PM EDT / 2020.09.18 2330 UTC
Wind: from the S (170 degrees) at 7 MPH (6 KT):0
Visibility: greater than 7 mile(s):0
Temperature: 71 F (22 C)
Dew Point: 66 F (19 C)
Relative Humidity: 83%
Pressure (altimeter): 29.80 in. Hg (1009 hPa)
ob: UBBB 182330Z 17006KT CAVOK 22/19 Q1009 R88/CLRD// NOSIG
cycle: 23

Station Type Date Time Source
UBBB TAF 2020/09/18 18:12 UTC NOAA

TAF UBBB 181705Z 1818/1918 16010KT CAVOK TX28/1909Z TN18/1902Z
TEMPO 1900/1906 VRB04KT SCT015
BECMG 1906/1908 32014KT SCT030
BECMG 1908/1910 35024G34KT
TEMPO 1910/1918 35030G40KT FEW040CB

Example: see airport list